UMKKEPGD

Guest
Details From UMKK - KHRABROVO
To EPGD - LECH WALESA
Flight Number -
Tags generated
Created
Modified
Stats Distance 80 nm / 148 km
Max Altitude 0 ft / 0 m
Waypoints 2
Social Downloads 2
Likes 0
Share VATSIM

Download

Looking for another format? Having issues loading an existing format? Contact us
Advertisement - Login to hide

Notes

Basic altitude profile: - Ascent Rate: 2500ft/min - Ascent Speed: 250kts - Cruise Altitude: 35000ft - Cruise Speed: 420kts - Descent Rate: 1500ft/min - Descent Speed: 250kts Options: - Use NATs: yes - Use PACOTS: yes - Use low airways: yes - Use high airways: yes

Route

UMKK EPGD

ID Type Via Altitude Latitude Longitude Leg Dist Tot Dist Heading (true) Name
O UMKK APT - 0 ft / 0 m 54.89005˚ 20.59264˚ - 0 nm - KHRABROVO
O EPGD APT - 0 ft / 0 m 54.37617˚ 18.47188˚ 79 nm 79 nm 248° / 246° LECH WALESA

Altitude Profile

Advertisement - Login to hide

UMKK

Details ICAO UMKK (KGD)
Name KHRABROVO
Region Belarus and Russia (Kaliningrad Oblast)
Timezone Europe/Kaliningrad (UTC+2.0)
Stats Elevation 42 ft / 13 m (AMSL)
Location 54.890049° 20.592635°
Runways 1
Magnetic Variation 6.166° E

METAR

UMKK 110230Z 13005MPS 100V160 6000 -SHSN BKN015CB M00/M01 Q0990 R24/29//55 NOSIG RMK QFE742/0989

Decode

TAF

TAF TAF UMKK 110200Z 1103/1203 14005G10MPS 3100 BR BKN007 BKN011 TEMPO 1103/1115 17003G08MPS 1000 SHSNRA BR BKN003 BKN012CB

Decode

Departure Runways

ID Width Length Bearing (true) Bearing (mag) Surface Threshold Offset Overrun Length
06 148 ft / 45 m 8,180 ft / 2,493 m 65.93° 59.76° Concrete 0 ft / 0 m 0 ft / 0 m
24 148 ft / 45 m 8,180 ft / 2,493 m 245.96° 239.79° Concrete 0 ft / 0 m 0 ft / 0 m

EPGD

Details ICAO EPGD (GDN)
Name LECH WALESA
Region Poland
Timezone Europe/Warsaw (UTC+1.0)
Stats Elevation 489 ft / 149 m (AMSL)
Location 54.376167° 18.471884°
Runways 1
Magnetic Variation 5.449° E

METAR

EPGD 110230Z 13012KT 3500 -SN OVC004 M01/M02 Q0986 R11/590195

Decode

TAF

TAF TAF EPGD 102330Z 1100/1124 15012KT 9999 SCT010 BKN020 TEMPO 1100/1107 16015G28KT 1300 SN SNRA BKN005 TEMPO 1107/1110 4000 RADZ BR BKN009 BECMG 1110/1112 20010KT BKN020

Decode

Destination Runways

ID Width Length Bearing (true) Bearing (mag) Surface Threshold Offset Overrun Length
11 148 ft / 45 m 9,158 ft / 2,791 m 112.96° 107.51° Asphalt 0 ft / 0 m 0 ft / 0 m
29 148 ft / 45 m 9,158 ft / 2,791 m 293.00° 287.55° Asphalt 0 ft / 0 m 0 ft / 0 m

Approach Navaids

Runway Type Ident Frequency Range Bearing (true) Bearing (mag) Slope Elevation
29 Localiser IGDA 110.30 MHz 18 nm / 33 km 292.96° 287.51° - 489 ft / 149 m (AMSL)
29 Glidescope IGDA 110.30 MHz 10 nm / 19 km 292.98° 287.53° 2.90° 489 ft / 149 m (AMSL)
29 DME IGDA 110.30 MHz 18 nm / 33 km - - - 492 ft / 150 m (AMSL)